sensor_id;sensor_type;location;lat;lon;timestamp;pressure;altitude;pressure_sealevel;temperature;humidity
72486;BME280;60509;47.308;-122.428;2023-05-19T00:00:38;100483.97;;;17.32;27.09
72486;BME280;60509;47.308;-122.428;2023-05-19T00:03:04;100486.69;;;17.65;26.91
72486;BME280;60509;47.308;-122.428;2023-05-19T00:05:30;100487.96;;;19.21;26.32
72486;BME280;60509;47.308;-122.428;2023-05-19T00:07:58;100487.09;;;19.88;25.83
72486;BME280;60509;47.308;-122.428;2023-05-19T00:10:22;100487.75;;;18.96;26.77
72486;BME280;60509;47.308;-122.428;2023-05-19T00:12:48;100488.46;;;18.60;26.97
72486;BME280;60509;47.308;-122.428;2023-05-19T00:15:14;100488.00;;;18.39;26.61
72486;BME280;60509;47.308;-122.428;2023-05-19T00:17:39;100490.24;;;17.79;26.88
72486;BME280;60509;47.308;-122.428;2023-05-19T00:20:06;100491.98;;;17.51;26.89
72486;BME280;60509;47.308;-122.428;2023-05-19T00:22:31;100494.60;;;17.55;26.41
72486;BME280;60509;47.308;-122.428;2023-05-19T00:24:57;100491.01;;;17.47;26.37
72486;BME280;60509;47.308;-122.428;2023-05-19T00:27:23;100493.28;;;18.76;26.27
72486;BME280;60509;47.308;-122.428;2023-05-19T00:29:49;100491.58;;;19.77;25.08
72486;BME280;60509;47.308;-122.428;2023-05-19T00:32:14;100491.61;;;19.75;25.75
72486;BME280;60509;47.308;-122.428;2023-05-19T00:34:41;100495.37;;;18.57;26.44
72486;BME280;60509;47.308;-122.428;2023-05-19T00:37:06;100497.75;;;18.89;26.28
72486;BME280;60509;47.308;-122.428;2023-05-19T00:39:32;100497.59;;;18.47;26.46
72486;BME280;60509;47.308;-122.428;2023-05-19T00:41:58;100495.43;;;18.35;25.86
72486;BME280;60509;47.308;-122.428;2023-05-19T00:44:24;100495.38;;;18.68;25.34
72486;BME280;60509;47.308;-122.428;2023-05-19T00:46:50;100493.41;;;19.00;25.17
72486;BME280;60509;47.308;-122.428;2023-05-19T00:49:16;100494.97;;;18.21;26.24
72486;BME280;60509;47.308;-122.428;2023-05-19T00:51:42;100492.55;;;19.23;24.97
72486;BME280;60509;47.308;-122.428;2023-05-19T00:54:08;100492.18;;;19.94;24.58
72486;BME280;60509;47.308;-122.428;2023-05-19T00:56:34;100497.30;;;18.77;25.88
72486;BME280;60509;47.308;-122.428;2023-05-19T00:59:00;100497.58;;;18.51;25.67
72486;BME280;60509;47.308;-122.428;2023-05-19T01:01:26;100498.52;;;17.83;26.16
72486;BME280;60509;47.308;-122.428;2023-05-19T01:03:52;100498.51;;;18.09;25.23
72486;BME280;60509;47.308;-122.428;2023-05-19T01:06:17;100500.67;;;18.04;25.32
72486;BME280;60509;47.308;-122.428;2023-05-19T01:08:43;100500.81;;;18.97;25.05
72486;BME280;60509;47.308;-122.428;2023-05-19T01:11:09;100499.55;;;19.11;24.46
72486;BME280;60509;47.308;-122.428;2023-05-19T01:13:35;100501.40;;;19.22;24.45
72486;BME280;60509;47.308;-122.428;2023-05-19T01:16:04;100502.83;;;17.92;25.34
72486;BME280;60509;47.308;-122.428;2023-05-19T01:18:36;100502.50;;;19.68;24.35
72486;BME280;60509;47.308;-122.428;2023-05-19T01:21:01;100498.73;;;20.69;24.23
72486;BME280;60509;47.308;-122.428;2023-05-19T01:23:30;100497.58;;;20.10;24.63
72486;BME280;60509;47.308;-122.428;2023-05-19T01:26:39;100495.42;;;19.28;25.02
72486;BME280;60509;47.308;-122.428;2023-05-19T01:28:29;100499.40;;;18.76;25.34
72486;BME280;60509;47.308;-122.428;2023-05-19T01:30:37;100505.20;;;18.90;24.94
72486;BME280;60509;47.308;-122.428;2023-05-19T01:33:05;100501.58;;;18.24;25.10
72486;BME280;60509;47.308;-122.428;2023-05-19T01:35:28;100500.76;;;18.15;24.86
72486;BME280;60509;47.308;-122.428;2023-05-19T01:37:56;100501.83;;;18.79;25.53
72486;BME280;60509;47.308;-122.428;2023-05-19T01:40:21;100498.20;;;19.58;24.57
72486;BME280;60509;47.308;-122.428;2023-05-19T01:42:46;100495.41;;;19.42;24.69
72486;BME280;60509;47.308;-122.428;2023-05-19T01:45:12;100492.38;;;19.37;25.04
72486;BME280;60509;47.308;-122.428;2023-05-19T01:47:41;100491.04;;;19.11;25.19
72486;BME280;60509;47.308;-122.428;2023-05-19T01:50:04;100489.75;;;19.22;24.83
72486;BME280;60509;47.308;-122.428;2023-05-19T01:52:29;100490.61;;;17.82;25.27
72486;BME280;60509;47.308;-122.428;2023-05-19T01:54:55;100491.87;;;18.44;24.87
72486;BME280;60509;47.308;-122.428;2023-05-19T01:57:26;100487.62;;;18.78;24.49
72486;BME280;60509;47.308;-122.428;2023-05-19T01:59:53;100487.91;;;18.70;24.44
72486;BME280;60509;47.308;-122.428;2023-05-19T02:02:20;100489.11;;;17.30;26.10
72486;BME280;60509;47.308;-122.428;2023-05-19T02:04:53;100492.67;;;18.92;25.45
72486;BME280;60509;47.308;-122.428;2023-05-19T02:07:14;100496.68;;;19.91;24.79
72486;BME280;60509;47.308;-122.428;2023-05-19T02:09:40;100505.26;;;19.71;25.39
72486;BME280;60509;47.308;-122.428;2023-05-19T02:12:02;100512.04;;;19.24;25.04
72486;BME280;60509;47.308;-122.428;2023-05-19T02:14:27;100513.26;;;18.49;25.72
72486;BME280;60509;47.308;-122.428;2023-05-19T02:16:49;100517.61;;;18.72;25.43
72486;BME280;60509;47.308;-122.428;2023-05-19T02:19:24;100521.22;;;18.31;25.53
72486;BME280;60509;47.308;-122.428;2023-05-19T02:21:40;100529.25;;;18.75;25.37
72486;BME280;60509;47.308;-122.428;2023-05-19T02:24:07;100533.66;;;18.35;25.51
72486;BME280;60509;47.308;-122.428;2023-05-19T02:26:32;100538.74;;;18.32;25.88
72486;BME280;60509;47.308;-122.428;2023-05-19T02:28:58;100538.54;;;19.35;24.97
72486;BME280;60509;47.308;-122.428;2023-05-19T02:31:24;100538.76;;;19.56;25.17
72486;BME280;60509;47.308;-122.428;2023-05-19T02:33:50;100540.59;;;19.14;25.02
72486;BME280;60509;47.308;-122.428;2023-05-19T02:36:16;100547.54;;;19.02;24.88
72486;BME280;60509;47.308;-122.428;2023-05-19T02:38:42;100552.20;;;18.84;24.75
72486;BME280;60509;47.308;-122.428;2023-05-19T02:41:08;100548.81;;;18.23;24.77
72486;BME280;60509;47.308;-122.428;2023-05-19T02:43:34;100555.00;;;18.61;24.44
72486;BME280;60509;47.308;-122.428;2023-05-19T02:46:00;100559.90;;;17.29;25.83
72486;BME280;60509;47.308;-122.428;2023-05-19T02:48:26;100564.19;;;19.09;24.43
72486;BME280;60509;47.308;-122.428;2023-05-19T02:50:52;100568.43;;;19.52;24.24
72486;BME280;60509;47.308;-122.428;2023-05-19T02:53:17;100571.70;;;19.31;24.76
72486;BME280;60509;47.308;-122.428;2023-05-19T02:55:43;100574.43;;;19.19;24.61
72486;BME280;60509;47.308;-122.428;2023-05-19T02:58:09;100579.54;;;18.18;24.74
72486;BME280;60509;47.308;-122.428;2023-05-19T03:00:35;100578.24;;;18.42;24.77
72486;BME280;60509;47.308;-122.428;2023-05-19T03:03:01;100576.65;;;18.43;24.53
72486;BME280;60509;47.308;-122.428;2023-05-19T03:05:27;100572.62;;;17.78;25.95
72486;BME280;60509;47.308;-122.428;2023-05-19T03:07:53;100577.19;;;18.65;25.00
72486;BME280;60509;47.308;-122.428;2023-05-19T03:10:19;100580.03;;;19.17;24.40
72486;BME280;60509;47.308;-122.428;2023-05-19T03:12:45;100586.50;;;19.37;24.33
72486;BME280;60509;47.308;-122.428;2023-05-19T03:15:11;100594.15;;;19.38;24.73
72486;BME280;60509;47.308;-122.428;2023-05-19T03:17:37;100599.30;;;19.42;24.45
72486;BME280;60509;47.308;-122.428;2023-05-19T03:20:03;100598.41;;;18.98;24.49
72486;BME280;60509;47.308;-122.428;2023-05-19T03:22:28;100594.28;;;18.50;24.23
72486;BME280;60509;47.308;-122.428;2023-05-19T03:24:54;100596.34;;;17.95;25.31
72486;BME280;60509;47.308;-122.428;2023-05-19T03:27:20;100596.38;;;18.36;25.37
72486;BME280;60509;47.308;-122.428;2023-05-19T03:29:46;100600.62;;;18.96;24.64
72486;BME280;60509;47.308;-122.428;2023-05-19T03:32:12;100604.38;;;19.59;24.34
72486;BME280;60509;47.308;-122.428;2023-05-19T03:34:38;100613.42;;;19.96;24.34
72486;BME280;60509;47.308;-122.428;2023-05-19T03:37:04;100614.11;;;18.70;24.89
72486;BME280;60509;47.308;-122.428;2023-05-19T03:39:30;100617.68;;;18.58;24.71
72486;BME280;60509;47.308;-122.428;2023-05-19T03:41:56;100613.48;;;18.17;24.54
72486;BME280;60509;47.308;-122.428;2023-05-19T03:44:22;100621.84;;;17.72;25.66
72486;BME280;60509;47.308;-122.428;2023-05-19T03:46:48;100629.07;;;18.77;25.02
72486;BME280;60509;47.308;-122.428;2023-05-19T03:49:14;100634.02;;;19.15;24.69
72486;BME280;60509;47.308;-122.428;2023-05-19T03:51:40;100634.14;;;19.50;24.48
72486;BME280;60509;47.308;-122.428;2023-05-19T03:54:06;100634.24;;;19.82;24.51
72486;BME280;60509;47.308;-122.428;2023-05-19T03:56:32;100634.93;;;18.37;25.54
72486;BME280;60509;47.308;-122.428;2023-05-19T03:58:57;100635.94;;;18.78;24.87
72486;BME280;60509;47.308;-122.428;2023-05-19T04:01:23;100636.45;;;18.57;24.44
72486;BME280;60509;47.308;-122.428;2023-05-19T04:03:49;100639.96;;;17.61;25.70
72486;BME280;60509;47.308;-122.428;2023-05-19T04:06:15;100649.56;;;18.55;25.15
72486;BME280;60509;47.308;-122.428;2023-05-19T04:08:41;100659.37;;;18.95;24.84
72486;BME280;60509;47.308;-122.428;2023-05-19T04:11:07;100665.77;;;19.21;24.70
72486;BME280;60509;47.308;-122.428;2023-05-19T04:13:33;100667.88;;;19.42;24.69
72486;BME280;60509;47.308;-122.428;2023-05-19T04:15:59;100672.41;;;19.57;24.69
72486;BME280;60509;47.308;-122.428;2023-05-19T04:18:25;100675.64;;;18.79;25.68
72486;BME280;60509;47.308;-122.428;2023-05-19T04:20:51;100680.92;;;18.90;25.81
72486;BME280;60509;47.308;-122.428;2023-05-19T04:23:17;100689.49;;;18.87;26.12
72486;BME280;60509;47.308;-122.428;2023-05-19T04:25:43;100694.38;;;16.86;27.53
72486;BME280;60509;47.308;-122.428;2023-05-19T04:28:09;100698.64;;;19.46;26.49
72486;BME280;60509;47.308;-122.428;2023-05-19T04:30:35;100699.16;;;18.08;27.46
72486;BME280;60509;47.308;-122.428;2023-05-19T04:33:00;100700.39;;;19.20;26.73
72486;BME280;60509;47.308;-122.428;2023-05-19T04:35:27;100703.73;;;17.96;27.03
72486;BME280;60509;47.308;-122.428;2023-05-19T04:37:52;100705.86;;;17.83;27.54
72486;BME280;60509;47.308;-122.428;2023-05-19T04:40:18;100706.39;;;18.43;27.27
72486;BME280;60509;47.308;-122.428;2023-05-19T04:42:44;100712.89;;;18.39;26.44
72486;BME280;60509;47.308;-122.428;2023-05-19T04:45:10;100716.12;;;17.13;27.19
72486;BME280;60509;47.308;-122.428;2023-05-19T04:47:36;100718.52;;;18.32;26.48
72486;BME280;60509;47.308;-122.428;2023-05-19T04:50:02;100717.24;;;18.70;26.09
72486;BME280;60509;47.308;-122.428;2023-05-19T04:52:28;100716.25;;;18.38;26.24
72486;BME280;60509;47.308;-122.428;2023-05-19T04:54:54;100715.54;;;17.71;27.09
72486;BME280;60509;47.308;-122.428;2023-05-19T04:57:20;100718.71;;;19.44;25.84
72486;BME280;60509;47.308;-122.428;2023-05-19T04:59:46;100720.66;;;19.62;25.74
72486;BME280;60509;47.308;-122.428;2023-05-19T05:02:12;100725.04;;;19.74;25.64
72486;BME280;60509;47.308;-122.428;2023-05-19T05:04:38;100732.26;;;18.59;26.54
72486;BME280;60509;47.308;-122.428;2023-05-19T05:07:04;100735.44;;;18.92;25.49
72486;BME280;60509;47.308;-122.428;2023-05-19T05:09:30;100735.36;;;19.21;25.25
72486;BME280;60509;47.308;-122.428;2023-05-19T05:11:56;100739.82;;;17.95;26.11
72486;BME280;60509;47.308;-122.428;2023-05-19T05:14:22;100740.51;;;19.60;24.94
72486;BME280;60509;47.308;-122.428;2023-05-19T05:16:48;100740.49;;;19.38;25.27
72486;BME280;60509;47.308;-122.428;2023-05-19T05:19:14;100743.94;;;19.95;24.95
72486;BME280;60509;47.308;-122.428;2023-05-19T05:21:40;100748.79;;;20.07;24.74
72486;BME280;60509;47.308;-122.428;2023-05-19T05:24:06;100749.67;;;20.63;24.58
72486;BME280;60509;47.308;-122.428;2023-05-19T05:26:33;100748.21;;;20.18;24.82
72486;BME280;60509;47.308;-122.428;2023-05-19T05:28:57;100749.04;;;20.32;24.80
72486;BME280;60509;47.308;-122.428;2023-05-19T05:31:23;100755.05;;;20.55;24.57
72486;BME280;60509;47.308;-122.428;2023-05-19T05:33:49;100760.10;;;20.81;24.49
72486;BME280;60509;47.308;-122.428;2023-05-19T05:36:15;100761.69;;;19.49;25.45
72486;BME280;60509;47.308;-122.428;2023-05-19T05:38:41;100765.03;;;19.58;25.34
72486;BME280;60509;47.308;-122.428;2023-05-19T05:41:07;100767.76;;;19.79;25.39
72486;BME280;60509;47.308;-122.428;2023-05-19T05:43:32;100768.21;;;17.86;26.35
72486;BME280;60509;47.308;-122.428;2023-05-19T05:45:59;100764.91;;;19.26;24.53
72486;BME280;60509;47.308;-122.428;2023-05-19T05:48:25;100766.68;;;18.90;25.11
72486;BME280;60509;47.308;-122.428;2023-05-19T05:50:52;100767.16;;;20.83;24.30
72486;BME280;60509;47.308;-122.428;2023-05-19T05:53:19;100769.75;;;20.52;24.39
72486;BME280;60509;47.308;-122.428;2023-05-19T05:55:43;100773.75;;;20.88;24.52
72486;BME280;60509;47.308;-122.428;2023-05-19T05:58:08;100778.25;;;20.41;24.71
72486;BME280;60509;47.308;-122.428;2023-05-19T06:00:34;100778.87;;;19.94;25.40
72486;BME280;60509;47.308;-122.428;2023-05-19T06:03:00;100781.53;;;18.28;28.08
72486;BME280;60509;47.308;-122.428;2023-05-19T06:05:26;100786.21;;;18.05;29.19
72486;BME280;60509;47.308;-122.428;2023-05-19T06:07:52;100795.44;;;18.29;29.29
72486;BME280;60509;47.308;-122.428;2023-05-19T06:10:18;100800.31;;;17.71;29.56
72486;BME280;60509;47.308;-122.428;2023-05-19T06:12:44;100805.26;;;18.09;29.07
72486;BME280;60509;47.308;-122.428;2023-05-19T06:15:10;100815.36;;;17.69;30.28
72486;BME280;60509;47.308;-122.428;2023-05-19T06:17:36;100819.20;;;18.10;30.40
72486;BME280;60509;47.308;-122.428;2023-05-19T06:20:07;100822.59;;;17.56;31.66
72486;BME280;60509;47.308;-122.428;2023-05-19T06:22:27;100825.73;;;18.10;30.94
72486;BME280;60509;47.308;-122.428;2023-05-19T06:24:53;100826.60;;;17.62;31.29
72486;BME280;60509;47.308;-122.428;2023-05-19T06:27:19;100829.87;;;16.77;32.21
72486;BME280;60509;47.308;-122.428;2023-05-19T06:29:45;100833.08;;;16.49;30.96
72486;BME280;60509;47.308;-122.428;2023-05-19T06:32:11;100838.72;;;17.33;31.30
72486;BME280;60509;47.308;-122.428;2023-05-19T06:34:37;100840.43;;;17.40;30.59
72486;BME280;60509;47.308;-122.428;2023-05-19T06:37:03;100838.79;;;17.34;30.74
72486;BME280;60509;47.308;-122.428;2023-05-19T06:39:29;100842.64;;;17.14;30.62
72486;BME280;60509;47.308;-122.428;2023-05-19T06:41:55;100847.22;;;16.24;31.24
72486;BME280;60509;47.308;-122.428;2023-05-19T06:44:22;100843.40;;;17.81;31.74
72486;BME280;60509;47.308;-122.428;2023-05-19T06:46:46;100844.18;;;17.10;32.41
72486;BME280;60509;47.308;-122.428;2023-05-19T06:49:12;100844.29;;;16.84;30.93
72486;BME280;60509;47.308;-122.428;2023-05-19T06:51:39;100849.41;;;17.24;31.28
72486;BME280;60509;47.308;-122.428;2023-05-19T06:54:04;100849.95;;;16.66;31.44
72486;BME280;60509;47.308;-122.428;2023-05-19T06:56:30;100853.85;;;16.69;31.65
72486;BME280;60509;47.308;-122.428;2023-05-19T06:58:56;100860.42;;;16.41;31.34
72486;BME280;60509;47.308;-122.428;2023-05-19T07:01:22;100861.76;;;16.94;30.90
72486;BME280;60509;47.308;-122.428;2023-05-19T07:03:48;100864.52;;;17.43;31.19
72486;BME280;60509;47.308;-122.428;2023-05-19T07:06:14;100870.09;;;15.99;31.80
72486;BME280;60509;47.308;-122.428;2023-05-19T07:08:40;100870.77;;;15.31;31.93
72486;BME280;60509;47.308;-122.428;2023-05-19T07:11:06;100870.50;;;16.02;32.53
72486;BME280;60509;47.308;-122.428;2023-05-19T07:13:32;100874.78;;;15.13;32.86
72486;BME280;60509;47.308;-122.428;2023-05-19T07:15:58;100878.24;;;16.31;32.16
72486;BME280;60509;47.308;-122.428;2023-05-19T07:18:24;100879.53;;;16.57;33.12
72486;BME280;60509;47.308;-122.428;2023-05-19T07:20:51;100881.47;;;15.23;33.19
72486;BME280;60509;47.308;-122.428;2023-05-19T07:23:15;100883.07;;;16.71;32.22
72486;BME280;60509;47.308;-122.428;2023-05-19T07:25:53;100884.20;;;16.75;32.56
72486;BME280;60509;47.308;-122.428;2023-05-19T07:28:08;100885.57;;;15.71;32.65
72486;BME280;60509;47.308;-122.428;2023-05-19T07:30:33;100883.55;;;17.37;32.30
72486;BME280;60509;47.308;-122.428;2023-05-19T07:32:59;100881.76;;;17.52;32.45
72486;BME280;60509;47.308;-122.428;2023-05-19T07:35:26;100887.96;;;17.04;31.46
72486;BME280;60509;47.308;-122.428;2023-05-19T07:37:51;100887.46;;;16.96;31.43
72486;BME280;60509;47.308;-122.428;2023-05-19T07:40:17;100889.79;;;17.21;32.30
72486;BME280;60509;47.308;-122.428;2023-05-19T07:42:43;100890.54;;;17.25;32.56
72486;BME280;60509;47.308;-122.428;2023-05-19T07:45:10;100892.66;;;17.21;31.75
72486;BME280;60509;47.308;-122.428;2023-05-19T07:47:35;100893.59;;;17.09;31.82
72486;BME280;60509;47.308;-122.428;2023-05-19T07:50:01;100894.14;;;17.10;31.66
72486;BME280;60509;47.308;-122.428;2023-05-19T07:52:27;100896.40;;;16.74;32.38
72486;BME280;60509;47.308;-122.428;2023-05-19T07:54:53;100896.33;;;17.08;32.40
72486;BME280;60509;47.308;-122.428;2023-05-19T07:57:19;100892.50;;;17.25;31.51
72486;BME280;60509;47.308;-122.428;2023-05-19T07:59:45;100898.34;;;17.07;32.87
72486;BME280;60509;47.308;-122.428;2023-05-19T08:02:11;100901.76;;;17.17;33.26
72486;BME280;60509;47.308;-122.428;2023-05-19T08:04:37;100908.62;;;16.96;31.39
72486;BME280;60509;47.308;-122.428;2023-05-19T08:07:03;100907.69;;;16.78;32.36
72486;BME280;60509;47.308;-122.428;2023-05-19T08:09:29;100909.51;;;16.94;32.64
72486;BME280;60509;47.308;-122.428;2023-05-19T08:11:55;100909.15;;;16.81;31.84
72486;BME280;60509;47.308;-122.428;2023-05-19T08:14:21;100909.36;;;16.93;31.98
72486;BME280;60509;47.308;-122.428;2023-05-19T08:16:47;100913.83;;;17.12;31.67
72486;BME280;60509;47.308;-122.428;2023-05-19T08:19:13;100913.69;;;16.96;32.22
72486;BME280;60509;47.308;-122.428;2023-05-19T08:21:39;100916.12;;;16.77;31.34
72486;BME280;60509;47.308;-122.428;2023-05-19T08:24:05;100914.48;;;16.68;32.04
72486;BME280;60509;47.308;-122.428;2023-05-19T08:26:31;100920.27;;;16.99;32.12
72486;BME280;60509;47.308;-122.428;2023-05-19T08:28:57;100918.62;;;16.95;31.97
72486;BME280;60509;47.308;-122.428;2023-05-19T08:31:23;100920.30;;;16.48;32.96
72486;BME280;60509;47.308;-122.428;2023-05-19T08:33:49;100916.47;;;16.61;31.70
72486;BME280;60509;47.308;-122.428;2023-05-19T08:36:15;100920.45;;;16.02;31.67
72486;BME280;60509;47.308;-122.428;2023-05-19T08:38:41;100920.90;;;15.69;32.26
72486;BME280;60509;47.308;-122.428;2023-05-19T08:41:06;100921.62;;;15.40;32.49
72486;BME280;60509;47.308;-122.428;2023-05-19T08:43:33;100920.57;;;15.73;31.89
72486;BME280;60509;47.308;-122.428;2023-05-19T08:45:59;100921.74;;;15.90;32.80
72486;BME280;60509;47.308;-122.428;2023-05-19T08:48:24;100925.60;;;15.91;32.00
72486;BME280;60509;47.308;-122.428;2023-05-19T08:51:03;100926.78;;;15.46;32.39
72486;BME280;60509;47.308;-122.428;2023-05-19T08:53:21;100924.00;;;15.25;32.78
72486;BME280;60509;47.308;-122.428;2023-05-19T08:55:49;100921.75;;;15.65;32.23
72486;BME280;60509;47.308;-122.428;2023-05-19T08:58:09;100922.22;;;15.51;33.49
72486;BME280;60509;47.308;-122.428;2023-05-19T09:00:34;100923.72;;;15.39;33.02
72486;BME280;60509;47.308;-122.428;2023-05-19T09:03:00;100927.05;;;15.93;32.85
72486;BME280;60509;47.308;-122.428;2023-05-19T09:05:26;100926.36;;;15.97;32.12
72486;BME280;60509;47.308;-122.428;2023-05-19T09:07:52;100929.67;;;16.43;31.99
72486;BME280;60509;47.308;-122.428;2023-05-19T09:10:18;100929.93;;;16.45;31.63
72486;BME280;60509;47.308;-122.428;2023-05-19T09:12:45;100933.56;;;15.78;32.14
72486;BME280;60509;47.308;-122.428;2023-05-19T09:15:11;100935.50;;;15.87;32.20
72486;BME280;60509;47.308;-122.428;2023-05-19T09:17:36;100939.70;;;15.69;32.56
72486;BME280;60509;47.308;-122.428;2023-05-19T09:20:02;100942.72;;;15.69;32.64
72486;BME280;60509;47.308;-122.428;2023-05-19T09:22:28;100943.86;;;15.11;33.00
72486;BME280;60509;47.308;-122.428;2023-05-19T09:24:55;100942.92;;;15.51;32.53
72486;BME280;60509;47.308;-122.428;2023-05-19T09:27:21;100938.66;;;15.35;32.75
72486;BME280;60509;47.308;-122.428;2023-05-19T09:29:45;100935.29;;;15.77;32.48
72486;BME280;60509;47.308;-122.428;2023-05-19T09:32:11;100936.30;;;15.88;32.33
72486;BME280;60509;47.308;-122.428;2023-05-19T09:34:40;100935.73;;;15.99;32.51
72486;BME280;60509;47.308;-122.428;2023-05-19T09:37:03;100939.75;;;15.60;32.85
72486;BME280;60509;47.308;-122.428;2023-05-19T09:39:29;100945.25;;;15.37;32.98
72486;BME280;60509;47.308;-122.428;2023-05-19T09:41:56;100948.52;;;15.35;32.92
72486;BME280;60509;47.308;-122.428;2023-05-19T09:44:22;100952.26;;;15.45;32.85
72486;BME280;60509;47.308;-122.428;2023-05-19T09:46:48;100952.11;;;15.78;32.83
72486;BME280;60509;47.308;-122.428;2023-05-19T09:49:12;100950.88;;;16.00;32.82
72486;BME280;60509;47.308;-122.428;2023-05-19T09:51:40;100949.93;;;16.04;33.01
72486;BME280;60509;47.308;-122.428;2023-05-19T09:54:04;100944.40;;;16.12;32.80
72486;BME280;60509;47.308;-122.428;2023-05-19T09:56:34;100942.16;;;16.23;32.56
72486;BME280;60509;47.308;-122.428;2023-05-19T09:58:56;100946.34;;;16.50;32.23
72486;BME280;60509;47.308;-122.428;2023-05-19T10:01:22;100946.81;;;16.13;31.85
72486;BME280;60509;47.308;-122.428;2023-05-19T10:03:47;100946.42;;;16.16;31.71
72486;BME280;60509;47.308;-122.428;2023-05-19T10:06:13;100949.02;;;16.29;31.62
72486;BME280;60509;47.308;-122.428;2023-05-19T10:08:40;100947.86;;;16.34;31.56
72486;BME280;60509;47.308;-122.428;2023-05-19T10:11:06;100946.15;;;16.57;31.49
72486;BME280;60509;47.308;-122.428;2023-05-19T10:13:31;100945.82;;;16.08;31.63
72486;BME280;60509;47.308;-122.428;2023-05-19T10:15:57;100943.60;;;16.56;31.31
72486;BME280;60509;47.308;-122.428;2023-05-19T10:18:24;100943.39;;;16.41;31.69
72486;BME280;60509;47.308;-122.428;2023-05-19T10:20:49;100945.90;;;16.21;31.62
72486;BME280;60509;47.308;-122.428;2023-05-19T10:23:15;100948.18;;;15.59;31.80
72486;BME280;60509;47.308;-122.428;2023-05-19T10:25:42;100949.54;;;16.15;31.76
72486;BME280;60509;47.308;-122.428;2023-05-19T10:28:10;100951.89;;;16.86;31.28
72486;BME280;60509;47.308;-122.428;2023-05-19T10:30:36;100950.30;;;16.41;31.11
72486;BME280;60509;47.308;-122.428;2023-05-19T10:33:00;100952.39;;;16.65;31.15
72486;BME280;60509;47.308;-122.428;2023-05-19T10:35:53;100954.83;;;16.77;31.16
72486;BME280;60509;47.308;-122.428;2023-05-19T10:38:01;100950.29;;;15.97;31.10
72486;BME280;60509;47.308;-122.428;2023-05-19T10:40:24;100952.69;;;16.74;31.56
72486;BME280;60509;47.308;-122.428;2023-05-19T10:42:52;100953.87;;;16.56;32.00
72486;BME280;60509;47.308;-122.428;2023-05-19T10:45:14;100950.88;;;16.62;31.61
72486;BME280;60509;47.308;-122.428;2023-05-19T10:47:35;100952.17;;;16.23;31.89
72486;BME280;60509;47.308;-122.428;2023-05-19T10:50:01;100953.41;;;16.52;32.31
72486;BME280;60509;47.308;-122.428;2023-05-19T10:52:29;100955.88;;;16.17;32.37
72486;BME280;60509;47.308;-122.428;2023-05-19T10:54:54;100955.31;;;16.34;32.33
72486;BME280;60509;47.308;-122.428;2023-05-19T10:57:24;100957.99;;;16.13;32.47
72486;BME280;60509;47.308;-122.428;2023-05-19T10:59:45;100958.64;;;16.21;32.69
72486;BME280;60509;47.308;-122.428;2023-05-19T11:02:37;100960.05;;;16.29;32.34
72486;BME280;60509;47.308;-122.428;2023-05-19T11:04:44;100960.17;;;15.87;33.09
72486;BME280;60509;47.308;-122.428;2023-05-19T11:07:03;100962.92;;;15.92;32.51
72486;BME280;60509;47.308;-122.428;2023-05-19T11:09:29;100961.81;;;15.84;32.41
72486;BME280;60509;47.308;-122.428;2023-05-19T11:11:55;100962.14;;;15.90;33.08
72486;BME280;60509;47.308;-122.428;2023-05-19T11:14:22;100960.06;;;15.90;32.20
72486;BME280;60509;47.308;-122.428;2023-05-19T11:16:49;100962.16;;;16.28;32.14
72486;BME280;60509;47.308;-122.428;2023-05-19T11:19:18;100964.35;;;16.22;31.46
72486;BME280;60509;47.308;-122.428;2023-05-19T11:21:47;100967.06;;;16.33;31.54
72486;BME280;60509;47.308;-122.428;2023-05-19T11:24:08;100971.59;;;16.19;31.46
72486;BME280;60509;47.308;-122.428;2023-05-19T11:26:47;100972.60;;;16.02;31.43
72486;BME280;60509;47.308;-122.428;2023-05-19T11:28:57;100971.64;;;16.17;31.76
72486;BME280;60509;47.308;-122.428;2023-05-19T11:31:22;100969.43;;;16.05;31.35
72486;BME280;60509;47.308;-122.428;2023-05-19T11:33:48;100968.09;;;16.18;31.35
72486;BME280;60509;47.308;-122.428;2023-05-19T11:36:14;100970.28;;;15.66;31.60
72486;BME280;60509;47.308;-122.428;2023-05-19T11:38:40;100968.51;;;16.22;30.98
72486;BME280;60509;47.308;-122.428;2023-05-19T11:41:05;100968.06;;;16.14;31.47
72486;BME280;60509;47.308;-122.428;2023-05-19T11:43:31;100967.82;;;15.39;31.52
72486;BME280;60509;47.308;-122.428;2023-05-19T11:45:57;100964.75;;;16.03;31.29
72486;BME280;60509;47.308;-122.428;2023-05-19T11:48:24;100961.64;;;16.07;31.22
72486;BME280;60509;47.308;-122.428;2023-05-19T11:50:49;100962.91;;;16.08;30.95
72486;BME280;60509;47.308;-122.428;2023-05-19T11:53:15;100961.52;;;15.47;31.39
72486;BME280;60509;47.308;-122.428;2023-05-19T11:55:44;100964.30;;;15.88;30.97
72486;BME280;60509;47.308;-122.428;2023-05-19T11:58:08;100963.68;;;15.57;30.99
72486;BME280;60509;47.308;-122.428;2023-05-19T12:00:36;100958.86;;;15.48;31.53
72486;BME280;60509;47.308;-122.428;2023-05-19T12:02:59;100959.84;;;16.03;30.76
72486;BME280;60509;47.308;-122.428;2023-05-19T12:05:26;100961.03;;;15.45;31.15
72486;BME280;60509;47.308;-122.428;2023-05-19T12:07:52;100961.57;;;16.09;30.80
72486;BME280;60509;47.308;-122.428;2023-05-19T12:10:18;100960.64;;;15.82;30.87
72486;BME280;60509;47.308;-122.428;2023-05-19T12:12:43;100958.70;;;15.90;30.83